BAW2191 LIMJ-LFSB
Flight info
| Callsign | BAW2191 |
|---|---|
| Flight time | N/A |
| Altitude | 18000 |
| Route | LAGEN1H LAGEN Q712 VOG M858 SRN/N0353F170 L615 DESIP/N0349F160 DCT ABESI N851 UTAVO DCT ELMUR T718 RIGVI DCT |
| Aircraft | A21N/M-SDE3FGHIJ1LRWXYZ/SB1G1 |
Departure
| Time | N/A |
|---|---|
| Airport | Genoa Cristoforo Colombo Airport (LIMJ) |
Arrival
| Time | 2026-05-07 21:22 |
|---|---|
| Airport | EuroAirport Basel–Mulhouse–Freiburg (LFSB) |
| Time | Latitude | Longitude | Altitude | Speed | Heading |
|---|---|---|---|---|---|
| 2026-05-07 20:21 | 45.29955 | 8.99520 | 17992 ft | 375 kts | 1° |
| 2026-05-07 20:21 | 45.32567 | 8.99716 | 17995 ft | 375 kts | 1° |
| 2026-05-07 20:21 | 45.35177 | 8.99912 | 17995 ft | 375 kts | 1° |
| 2026-05-07 20:21 | 45.37786 | 9.00109 | 17996 ft | 375 kts | 1° |
| 2026-05-07 20:22 | 45.40389 | 9.00306 | 17994 ft | 375 kts | 1° |
| 2026-05-07 20:22 | 45.43005 | 9.00504 | 17994 ft | 375 kts | 0° |
| 2026-05-07 20:22 | 45.45610 | 9.00702 | 17991 ft | 374 kts | 0° |
| 2026-05-07 20:22 | 45.48212 | 9.00900 | 17990 ft | 374 kts | 0° |
| 2026-05-07 20:23 | 45.50815 | 9.01104 | 17991 ft | 375 kts | 1° |
| 2026-05-07 20:23 | 45.53381 | 9.01799 | 17984 ft | 379 kts | 18° |
| 2026-05-07 20:23 | 45.55696 | 9.03613 | 17990 ft | 383 kts | 37° |
| 2026-05-07 20:23 | 45.57498 | 9.06413 | 17993 ft | 386 kts | 56° |
| 2026-05-07 20:24 | 45.58821 | 9.09742 | 18003 ft | 386 kts | 55° |
| 2026-05-07 20:24 | 45.60623 | 9.12532 | 17999 ft | 382 kts | 36° |
| 2026-05-07 20:24 | 45.62941 | 9.14340 | 18000 ft | 379 kts | 16° |
| 2026-05-07 20:24 | 45.65503 | 9.14971 | 18000 ft | 373 kts | 357° |
| 2026-05-07 20:25 | 45.68003 | 9.14393 | 17993 ft | 367 kts | 338° |
| 2026-05-07 20:25 | 45.70337 | 9.12961 | 17997 ft | 365 kts | 333° |
| 2026-05-07 20:25 | 45.72734 | 9.11731 | 17999 ft | 368 kts | 342° |
| 2026-05-07 20:25 | 45.75255 | 9.10985 | 18005 ft | 370 kts | 348° |
| 2026-05-07 20:26 | 45.77804 | 9.10472 | 18012 ft | 370 kts | 350° |
| 2026-05-07 20:26 | 45.80364 | 9.10043 | 18018 ft | 371 kts | 351° |
| 2026-05-07 20:26 | 45.82933 | 9.09630 | 18026 ft | 371 kts | 351° |
| 2026-05-07 20:26 | 45.85506 | 9.09219 | 18023 ft | 372 kts | 351° |
| 2026-05-07 20:27 | 45.88079 | 9.08805 | 18025 ft | 371 kts | 351° |
| 2026-05-07 20:27 | 45.90647 | 9.08391 | 18025 ft | 371 kts | 351° |
| 2026-05-07 20:27 | 45.93207 | 9.07976 | 18022 ft | 371 kts | 351° |
| 2026-05-07 20:27 | 45.95771 | 9.07561 | 18024 ft | 371 kts | 351° |
| 2026-05-07 20:28 | 45.98338 | 9.07147 | 18038 ft | 371 kts | 351° |
| 2026-05-07 20:28 | 46.00902 | 9.06729 | 18052 ft | 371 kts | 351° |
| 2026-05-07 20:28 | 46.03436 | 9.06316 | 18051 ft | 371 kts | 351° |
| 2026-05-07 20:28 | 46.06001 | 9.05897 | 18048 ft | 371 kts | 351° |
| 2026-05-07 20:29 | 46.08566 | 9.05482 | 18040 ft | 371 kts | 351° |
| 2026-05-07 20:29 | 46.11132 | 9.05066 | 18027 ft | 371 kts | 351° |
| 2026-05-07 20:29 | 46.13698 | 9.04650 | 18025 ft | 371 kts | 351° |
| 2026-05-07 20:29 | 46.16270 | 9.04229 | 18018 ft | 371 kts | 351° |
| 2026-05-07 20:30 | 46.18846 | 9.03856 | 18022 ft | 372 kts | 352° |
| 2026-05-07 20:30 | 46.21422 | 9.03526 | 18027 ft | 372 kts | 352° |
| 2026-05-07 20:30 | 46.24012 | 9.03193 | 18013 ft | 373 kts | 352° |
| 2026-05-07 20:30 | 46.26596 | 9.02854 | 18009 ft | 372 kts | 352° |
| 2026-05-07 20:31 | 46.29172 | 9.02513 | 18007 ft | 372 kts | 352° |
| 2026-05-07 20:31 | 46.31754 | 9.02168 | 18002 ft | 373 kts | 352° |
| 2026-05-07 20:31 | 46.34338 | 9.01822 | 17999 ft | 373 kts | 352° |
| 2026-05-07 20:31 | 46.36921 | 9.01476 | 18001 ft | 372 kts | 352° |
| 2026-05-07 20:32 | 46.39498 | 9.01130 | 18011 ft | 372 kts | 352° |
| 2026-05-07 20:32 | 46.41208 | 9.00900 | 18029 ft | 372 kts | 352° |
| 2026-05-07 20:32 | 46.43791 | 9.00551 | 18023 ft | 373 kts | 352° |
| 2026-05-07 20:32 | 46.46380 | 9.00203 | 18024 ft | 373 kts | 352° |
| 2026-05-07 20:33 | 46.49800 | 8.99743 | 18038 ft | 372 kts | 352° |
| 2026-05-07 20:33 | 46.52379 | 8.99396 | 18038 ft | 372 kts | 352° |
| 2026-05-07 20:33 | 46.54118 | 8.99162 | 18039 ft | 372 kts | 352° |
| 2026-05-07 20:33 | 46.56705 | 8.98813 | 18030 ft | 372 kts | 352° |
| 2026-05-07 20:34 | 46.59284 | 8.98464 | 18021 ft | 372 kts | 352° |
| 2026-05-07 20:34 | 46.61862 | 8.98115 | 18043 ft | 372 kts | 352° |
| 2026-05-07 20:34 | 46.64447 | 8.97765 | 18045 ft | 374 kts | 352° |
| 2026-05-07 20:34 | 46.67033 | 8.97416 | 18033 ft | 372 kts | 352° |
| 2026-05-07 20:35 | 46.69615 | 8.97066 | 18042 ft | 373 kts | 352° |
| 2026-05-07 20:35 | 46.72163 | 8.96721 | 18044 ft | 373 kts | 352° |
| 2026-05-07 20:35 | 46.74786 | 8.96364 | 18047 ft | 373 kts | 352° |
| 2026-05-07 20:35 | 46.77367 | 8.96013 | 18040 ft | 373 kts | 352° |
| 2026-05-07 20:36 | 46.79918 | 8.95666 | 18054 ft | 372 kts | 352° |
| 2026-05-07 20:36 | 46.82498 | 8.95313 | 18047 ft | 372 kts | 352° |
| 2026-05-07 20:36 | 46.85086 | 8.94961 | 18053 ft | 375 kts | 352° |
| 2026-05-07 20:36 | 46.87685 | 8.94606 | 18045 ft | 375 kts | 352° |
| 2026-05-07 20:37 | 46.90281 | 8.94252 | 18049 ft | 375 kts | 352° |
| 2026-05-07 20:37 | 46.92873 | 8.93898 | 18051 ft | 375 kts | 352° |
| 2026-05-07 20:37 | 46.95470 | 8.93542 | 18054 ft | 375 kts | 352° |
| 2026-05-07 20:37 | 46.98068 | 8.93186 | 18047 ft | 375 kts | 352° |
| 2026-05-07 20:38 | 47.00670 | 8.92829 | 18051 ft | 374 kts | 352° |
| 2026-05-07 20:38 | 47.03231 | 8.92477 | 18048 ft | 375 kts | 352° |
| 2026-05-07 20:38 | 47.05822 | 8.92121 | 18050 ft | 374 kts | 352° |
| 2026-05-07 20:38 | 47.08418 | 8.91764 | 18051 ft | 374 kts | 352° |
| 2026-05-07 20:39 | 47.11010 | 8.91407 | 18043 ft | 374 kts | 352° |
| 2026-05-07 20:39 | 47.13600 | 8.91047 | 18053 ft | 374 kts | 352° |
| 2026-05-07 20:39 | 47.16127 | 8.90266 | 18043 ft | 370 kts | 336° |
| 2026-05-07 20:39 | 47.18405 | 8.88541 | 18049 ft | 367 kts | 327° |
| 2026-05-07 20:40 | 47.20586 | 8.86588 | 18050 ft | 367 kts | 326° |
| 2026-05-07 20:40 | 47.22770 | 8.84620 | 18055 ft | 367 kts | 326° |
| 2026-05-07 20:40 | 47.24957 | 8.82680 | 18053 ft | 367 kts | 326° |
| 2026-05-07 20:40 | 47.27123 | 8.80768 | 18059 ft | 367 kts | 327° |
| 2026-05-07 20:41 | 47.29318 | 8.78839 | 18053 ft | 367 kts | 327° |
| 2026-05-07 20:41 | 47.31510 | 8.76905 | 18058 ft | 367 kts | 327° |
| 2026-05-07 20:41 | 47.33703 | 8.74970 | 18059 ft | 367 kts | 327° |
| 2026-05-07 20:41 | 47.35896 | 8.73045 | 18062 ft | 365 kts | 327° |
| 2026-05-07 20:42 | 47.38073 | 8.71127 | 18044 ft | 365 kts | 327° |
| 2026-05-07 20:42 | 47.40258 | 8.69199 | 18056 ft | 366 kts | 327° |
| 2026-05-07 20:42 | 47.42440 | 8.67272 | 18055 ft | 366 kts | 327° |
| 2026-05-07 20:42 | 47.44621 | 8.65343 | 18047 ft | 366 kts | 327° |
| 2026-05-07 20:43 | 47.46803 | 8.63411 | 18049 ft | 365 kts | 327° |
| 2026-05-07 20:43 | 47.48988 | 8.61475 | 18057 ft | 366 kts | 327° |
| 2026-05-07 20:43 | 47.51151 | 8.59561 | 18047 ft | 366 kts | 327° |
| 2026-05-07 20:43 | 47.53337 | 8.57620 | 18046 ft | 366 kts | 326° |
| 2026-05-07 20:44 | 47.55525 | 8.55676 | 18046 ft | 366 kts | 327° |
| 2026-05-07 20:44 | 47.57710 | 8.53737 | 18050 ft | 366 kts | 327° |
| 2026-05-07 20:44 | 47.59897 | 8.51791 | 18055 ft | 366 kts | 327° |
| 2026-05-07 20:44 | 47.62082 | 8.49849 | 18052 ft | 366 kts | 327° |
| 2026-05-07 20:45 | 47.64262 | 8.47894 | 18057 ft | 366 kts | 326° |
| 2026-05-07 20:45 | 47.66438 | 8.45943 | 18059 ft | 366 kts | 326° |
| 2026-05-07 20:45 | 47.68557 | 8.43866 | 18058 ft | 364 kts | 318° |
| 2026-05-07 20:45 | 47.70258 | 8.41128 | 18079 ft | 360 kts | 305° |
| 2026-05-07 20:46 | 47.71716 | 8.38117 | 18083 ft | 359 kts | 303° |
| 2026-05-07 20:46 | 47.73146 | 8.35085 | 18078 ft | 359 kts | 303° |
| 2026-05-07 20:46 | 47.74588 | 8.32046 | 18077 ft | 359 kts | 303° |
| 2026-05-07 20:46 | 47.76032 | 8.29021 | 18080 ft | 359 kts | 303° |
| 2026-05-07 20:47 | 47.77478 | 8.25999 | 18082 ft | 359 kts | 303° |
| 2026-05-07 20:47 | 47.78910 | 8.23012 | 18082 ft | 359 kts | 303° |
| 2026-05-07 20:47 | 47.80360 | 8.19984 | 18079 ft | 359 kts | 303° |
| 2026-05-07 20:47 | 47.81806 | 8.16961 | 18078 ft | 359 kts | 303° |
| 2026-05-07 20:48 | 47.83255 | 8.13931 | 18080 ft | 359 kts | 303° |
| 2026-05-07 20:48 | 47.84703 | 8.10902 | 18077 ft | 359 kts | 303° |
| 2026-05-07 20:48 | 47.86149 | 8.07873 | 18086 ft | 359 kts | 303° |
| 2026-05-07 20:48 | 47.87596 | 8.04835 | 18087 ft | 359 kts | 303° |
| 2026-05-07 20:49 | 47.89042 | 8.01800 | 18091 ft | 359 kts | 303° |
| 2026-05-07 20:49 | 47.90487 | 7.98762 | 18086 ft | 359 kts | 303° |
| 2026-05-07 20:49 | 47.91930 | 7.95727 | 18087 ft | 359 kts | 303° |
| 2026-05-07 20:49 | 47.93370 | 7.92688 | 18084 ft | 359 kts | 303° |
| 2026-05-07 20:50 | 47.94808 | 7.89644 | 18080 ft | 359 kts | 303° |
| 2026-05-07 20:50 | 47.96246 | 7.86598 | 18091 ft | 359 kts | 303° |
| 2026-05-07 20:50 | 47.97683 | 7.83548 | 18087 ft | 359 kts | 303° |
| 2026-05-07 20:50 | 47.99113 | 7.80495 | 18077 ft | 359 kts | 303° |
| 2026-05-07 20:51 | 48.00546 | 7.77452 | 18073 ft | 359 kts | 303° |
| 2026-05-07 20:51 | 48.01979 | 7.74398 | 18073 ft | 359 kts | 303° |
| 2026-05-07 20:51 | 48.03390 | 7.71381 | 18074 ft | 359 kts | 303° |
| 2026-05-07 20:51 | 48.04817 | 7.68330 | 18075 ft | 358 kts | 303° |
| 2026-05-07 20:52 | 48.06243 | 7.65283 | 18076 ft | 357 kts | 303° |
| 2026-05-07 20:52 | 48.07674 | 7.62242 | 18077 ft | 357 kts | 303° |
| 2026-05-07 20:52 | 48.09105 | 7.59195 | 18075 ft | 357 kts | 303° |
| 2026-05-07 20:52 | 48.10537 | 7.56161 | 18071 ft | 357 kts | 304° |
| 2026-05-07 20:53 | 48.12230 | 7.53437 | 18066 ft | 360 kts | 319° |
| 2026-05-07 20:53 | 48.14426 | 7.51608 | 18063 ft | 365 kts | 339° |
| 2026-05-07 20:53 | 48.16945 | 7.50972 | 18071 ft | 371 kts | 358° |
| 2026-05-07 20:53 | 48.19521 | 7.51326 | 18089 ft | 373 kts | 5° |
| 2026-05-07 20:54 | 48.22094 | 7.51868 | 18083 ft | 373 kts | 6° |
| 2026-05-07 20:54 | 48.24673 | 7.52396 | 18080 ft | 373 kts | 5° |
| 2026-05-07 20:54 | 48.27247 | 7.52894 | 18079 ft | 373 kts | 5° |
| 2026-05-07 20:54 | 48.29795 | 7.53371 | 18079 ft | 373 kts | 5° |
| 2026-05-07 20:55 | 48.32375 | 7.53848 | 18080 ft | 373 kts | 5° |
| 2026-05-07 20:55 | 48.34959 | 7.54322 | 18080 ft | 373 kts | 4° |
| 2026-05-07 20:55 | 48.37536 | 7.54749 | 18078 ft | 372 kts | 1° |
| 2026-05-07 20:55 | 48.40096 | 7.54425 | 18076 ft | 367 kts | 343° |
| 2026-05-07 20:56 | 48.42404 | 7.52883 | 18081 ft | 363 kts | 323° |
| 2026-05-07 20:56 | 48.44210 | 7.50289 | 18081 ft | 359 kts | 304° |
| 2026-05-07 20:56 | 48.45350 | 7.46976 | 18078 ft | 356 kts | 287° |
| 2026-05-07 20:56 | 48.45725 | 7.43313 | 18079 ft | 355 kts | 269° |
| 2026-05-07 20:57 | 48.45318 | 7.39667 | 18084 ft | 355 kts | 251° |
| 2026-05-07 20:57 | 48.44167 | 7.36388 | 18080 ft | 357 kts | 233° |
| 2026-05-07 20:57 | 48.42399 | 7.33829 | 18082 ft | 360 kts | 216° |
| 2026-05-07 20:57 | 48.40134 | 7.32196 | 18076 ft | 364 kts | 198° |
| 2026-05-07 20:58 | 48.37615 | 7.31738 | 18079 ft | 370 kts | 179° |
| 2026-05-07 20:58 | 48.35094 | 7.32560 | 18077 ft | 374 kts | 160° |
| 2026-05-07 20:58 | 48.32750 | 7.34261 | 18085 ft | 375 kts | 154° |
| 2026-05-07 20:58 | 48.30449 | 7.36083 | 18074 ft | 370 kts | 154° |
| 2026-05-07 20:59 | 48.28182 | 7.37852 | 17459 ft | 368 kts | 155° |
| 2026-05-07 20:59 | 48.25898 | 7.39580 | 16840 ft | 365 kts | 155° |
| 2026-05-07 20:59 | 48.23584 | 7.41041 | 16380 ft | 357 kts | 166° |
| 2026-05-07 20:59 | 48.21159 | 7.41489 | 15960 ft | 348 kts | 185° |
| 2026-05-07 21:00 | 48.18810 | 7.40794 | 15571 ft | 342 kts | 200° |
| 2026-05-07 21:00 | 48.16571 | 7.39603 | 15206 ft | 340 kts | 202° |
| 2026-05-07 21:00 | 48.14358 | 7.38389 | 14826 ft | 338 kts | 202° |
| 2026-05-07 21:00 | 48.12143 | 7.37197 | 14427 ft | 338 kts | 201° |
| 2026-05-07 21:01 | 48.09928 | 7.36027 | 14030 ft | 337 kts | 201° |
| 2026-05-07 21:01 | 48.07745 | 7.34889 | 13617 ft | 336 kts | 201° |
| 2026-05-07 21:01 | 48.05541 | 7.33744 | 13218 ft | 334 kts | 201° |
| 2026-05-07 21:01 | 48.03353 | 7.32612 | 12841 ft | 332 kts | 201° |
| 2026-05-07 21:02 | 48.01180 | 7.31489 | 12472 ft | 329 kts | 201° |
| 2026-05-07 21:02 | 47.99016 | 7.30372 | 12072 ft | 328 kts | 201° |
| 2026-05-07 21:02 | 47.96865 | 7.29264 | 11689 ft | 326 kts | 201° |
| 2026-05-07 21:02 | 47.94725 | 7.28161 | 11327 ft | 324 kts | 201° |
| 2026-05-07 21:03 | 47.92593 | 7.27071 | 10977 ft | 321 kts | 201° |
| 2026-05-07 21:03 | 47.90514 | 7.26013 | 10736 ft | 310 kts | 201° |
| 2026-05-07 21:03 | 47.88509 | 7.24995 | 10569 ft | 298 kts | 201° |
| 2026-05-07 21:03 | 47.86585 | 7.24019 | 10425 ft | 285 kts | 201° |
| 2026-05-07 21:04 | 47.84740 | 7.23082 | 10245 ft | 275 kts | 201° |
| 2026-05-07 21:04 | 47.82947 | 7.22172 | 9938 ft | 270 kts | 201° |
| 2026-05-07 21:04 | 47.81176 | 7.21271 | 9569 ft | 269 kts | 201° |
| 2026-05-07 21:04 | 47.79410 | 7.20374 | 9231 ft | 268 kts | 201° |
| 2026-05-07 21:05 | 47.77643 | 7.19477 | 8908 ft | 267 kts | 201° |
| 2026-05-07 21:05 | 47.75892 | 7.18589 | 8607 ft | 265 kts | 200° |
| 2026-05-07 21:05 | 47.74147 | 7.17706 | 8298 ft | 264 kts | 200° |
| 2026-05-07 21:05 | 47.72430 | 7.16836 | 8037 ft | 261 kts | 200° |
| 2026-05-07 21:06 | 47.70748 | 7.15967 | 7887 ft | 250 kts | 200° |
| 2026-05-07 21:06 | 47.69156 | 7.15143 | 7920 ft | 239 kts | 200° |
| 2026-05-07 21:06 | 47.67585 | 7.14334 | 7943 ft | 239 kts | 201° |
| 2026-05-07 21:06 | 47.66097 | 7.13284 | 7927 ft | 237 kts | 217° |
| 2026-05-07 21:07 | 47.64858 | 7.11673 | 7933 ft | 237 kts | 218° |
| 2026-05-07 21:07 | 47.63371 | 7.10640 | 7927 ft | 239 kts | 192° |
| 2026-05-07 21:07 | 47.61709 | 7.10693 | 7920 ft | 243 kts | 167° |
| 2026-05-07 21:07 | 47.60102 | 7.11487 | 7943 ft | 244 kts | 163° |
| 2026-05-07 21:08 | 47.58508 | 7.12364 | 7968 ft | 242 kts | 160° |
| 2026-05-07 21:08 | 47.56975 | 7.13335 | 7665 ft | 238 kts | 158° |
| 2026-05-07 21:08 | 47.55472 | 7.14294 | 7287 ft | 239 kts | 158° |
| 2026-05-07 21:08 | 47.53942 | 7.15267 | 7062 ft | 239 kts | 158° |
| 2026-05-07 21:09 | 47.52409 | 7.16240 | 7001 ft | 240 kts | 158° |
| 2026-05-07 21:09 | 47.50876 | 7.17211 | 6966 ft | 239 kts | 158° |
| 2026-05-07 21:09 | 47.49344 | 7.18179 | 6962 ft | 239 kts | 158° |
| 2026-05-07 21:09 | 47.47813 | 7.19143 | 6954 ft | 239 kts | 158° |
| 2026-05-07 21:10 | 47.46282 | 7.20108 | 6962 ft | 239 kts | 158° |
| 2026-05-07 21:10 | 47.44825 | 7.21285 | 6952 ft | 240 kts | 140° |
| 2026-05-07 21:10 | 47.43840 | 7.23274 | 6955 ft | 243 kts | 112° |
| 2026-05-07 21:10 | 47.43513 | 7.25724 | 6967 ft | 245 kts | 96° |
| 2026-05-07 21:11 | 47.43083 | 7.28126 | 6963 ft | 243 kts | 118° |
| 2026-05-07 21:11 | 47.42246 | 7.30291 | 6964 ft | 242 kts | 122° |
| 2026-05-07 21:11 | 47.40501 | 7.34550 | 6959 ft | 242 kts | 122° |
| 2026-05-07 21:12 | 47.39635 | 7.36686 | 6959 ft | 242 kts | 122° |
| 2026-05-07 21:12 | 47.38782 | 7.38795 | 6952 ft | 243 kts | 122° |
| 2026-05-07 21:12 | 47.37907 | 7.40959 | 6957 ft | 242 kts | 122° |
| 2026-05-07 21:12 | 47.37045 | 7.43093 | 6958 ft | 242 kts | 122° |
| 2026-05-07 21:13 | 47.36184 | 7.45227 | 6962 ft | 242 kts | 122° |
| 2026-05-07 21:13 | 47.35333 | 7.47339 | 6959 ft | 242 kts | 122° |
| 2026-05-07 21:13 | 47.34471 | 7.49471 | 6959 ft | 241 kts | 121° |
| 2026-05-07 21:13 | 47.33616 | 7.51595 | 6968 ft | 241 kts | 121° |
| 2026-05-07 21:14 | 47.32759 | 7.53722 | 6965 ft | 241 kts | 121° |
| 2026-05-07 21:14 | 47.31897 | 7.55849 | 6970 ft | 241 kts | 121° |
| 2026-05-07 21:14 | 47.31034 | 7.57973 | 6916 ft | 240 kts | 122° |
| 2026-05-07 21:14 | 47.30243 | 7.60121 | 6621 ft | 238 kts | 110° |
| 2026-05-07 21:15 | 47.29987 | 7.62502 | 6307 ft | 235 kts | 86° |
| 2026-05-07 21:15 | 47.30375 | 7.64787 | 6093 ft | 226 kts | 64° |
| 2026-05-07 21:15 | 47.31272 | 7.66607 | 5889 ft | 216 kts | 43° |
| 2026-05-07 21:15 | 47.32538 | 7.67770 | 5703 ft | 217 kts | 22° |
| 2026-05-07 21:16 | 47.34000 | 7.68174 | 5660 ft | 219 kts | 2° |
| 2026-05-07 21:16 | 47.35532 | 7.67880 | 5665 ft | 220 kts | 351° |
| 2026-05-07 21:16 | 47.37018 | 7.67451 | 5678 ft | 220 kts | 348° |
| 2026-05-07 21:16 | 47.38494 | 7.66842 | 5678 ft | 220 kts | 343° |
| 2026-05-07 21:17 | 47.39938 | 7.66056 | 5661 ft | 221 kts | 339° |
| 2026-05-07 21:17 | 47.41345 | 7.65147 | 5459 ft | 220 kts | 336° |
| 2026-05-07 21:17 | 47.42731 | 7.64200 | 5155 ft | 218 kts | 336° |
| 2026-05-07 21:17 | 47.44067 | 7.63276 | 4856 ft | 203 kts | 336° |
| 2026-05-07 21:18 | 47.45309 | 7.62417 | 4569 ft | 195 kts | 337° |
| 2026-05-07 21:18 | 47.46534 | 7.61569 | 4251 ft | 193 kts | 336° |
| 2026-05-07 21:18 | 47.47747 | 7.60728 | 3932 ft | 192 kts | 337° |
| 2026-05-07 21:18 | 47.48953 | 7.59892 | 3621 ft | 190 kts | 337° |
| 2026-05-07 21:19 | 47.50150 | 7.59061 | 3319 ft | 189 kts | 337° |
| 2026-05-07 21:19 | 47.51267 | 7.58286 | 3007 ft | 169 kts | 337° |
| 2026-05-07 21:19 | 47.52271 | 7.57589 | 2741 ft | 149 kts | 336° |
| 2026-05-07 21:19 | 47.53160 | 7.56973 | 2511 ft | 138 kts | 335° |
| 2026-05-07 21:20 | 47.54028 | 7.56370 | 2312 ft | 136 kts | 334° |
| 2026-05-07 21:20 | 47.54882 | 7.55777 | 2099 ft | 135 kts | 333° |
| 2026-05-07 21:20 | 47.55731 | 7.55189 | 1870 ft | 133 kts | 334° |
| 2026-05-07 21:20 | 47.56568 | 7.54593 | 1642 ft | 133 kts | 334° |
| 2026-05-07 21:21 | 47.57118 | 7.54215 | 1490 ft | 132 kts | 335° |
| 2026-05-07 21:21 | 47.57956 | 7.53637 | 1304 ft | 133 kts | 334° |
| 2026-05-07 21:21 | 47.58788 | 7.53064 | 1078 ft | 131 kts | 334° |
| 2026-05-07 21:21 | 47.59614 | 7.52489 | 916 ft | 127 kts | 334° |
| 2026-05-07 21:22 | 47.60268 | 7.52029 | 897 ft | 63 kts | 333° |
| 2026-05-07 21:22 | 47.60450 | 7.51905 | 893 ft | 10 kts | 335° |
| 2026-05-07 21:22 | 47.60525 | 7.51917 | 893 ft | 13 kts | 42° |
| 2026-05-07 21:22 | 47.60552 | 7.51988 | 892 ft | 5 kts | 66° |
| 2026-05-07 21:23 | 47.60565 | 7.52032 | 892 ft | 0 kts | 66° |
| 2026-05-07 21:23 | 47.60567 | 7.52038 | 892 ft | 3 kts | 68° |
| 2026-05-07 21:23 | 47.60571 | 7.52080 | 892 ft | 5 kts | 96° |
| 2026-05-07 21:24 | 47.60545 | 7.52133 | 892 ft | 8 kts | 144° |
| 2026-05-07 21:24 | 47.60488 | 7.52173 | 892 ft | 10 kts | 155° |
| 2026-05-07 21:24 | 47.60414 | 7.52223 | 892 ft | 13 kts | 154° |
| 2026-05-07 21:24 | 47.60326 | 7.52286 | 892 ft | 15 kts | 154° |
| 2026-05-07 21:25 | 47.60223 | 7.52357 | 892 ft | 17 kts | 155° |
| 2026-05-07 21:25 | 47.60216 | 7.52362 | 892 ft | 0 kts | 155° |
| 2026-05-07 21:25 | 47.60208 | 7.52368 | 892 ft | 3 kts | 155° |
| 2026-05-07 21:25 | 47.60193 | 7.52399 | 892 ft | 5 kts | 102° |
| 2026-05-07 21:26 | 47.60185 | 7.52463 | 892 ft | 8 kts | 113° |
| 2026-05-07 21:26 | 47.60137 | 7.52514 | 892 ft | 10 kts | 156° |
| 2026-05-07 21:26 | 47.60065 | 7.52561 | 892 ft | 12 kts | 155° |
| 2026-05-07 21:26 | 47.59985 | 7.52616 | 892 ft | 11 kts | 154° |
| 2026-05-07 21:27 | 47.59926 | 7.52659 | 892 ft | 4 kts | 154° |
| 2026-05-07 21:27 | 47.59893 | 7.52682 | 892 ft | 7 kts | 154° |
| 2026-05-07 21:27 | 47.59856 | 7.52734 | 892 ft | 9 kts | 83° |
| 2026-05-07 21:27 | 47.59866 | 7.52758 | 892 ft | 0 kts | 40° |
| 2026-05-07 21:28 | 47.59872 | 7.52771 | 892 ft | 3 kts | 56° |
| 2026-05-07 21:28 | 47.59880 | 7.52790 | 892 ft | 0 kts | 58° |
| 2026-05-07 21:29 | 47.59872 | 7.52783 | 892 ft | 0 kts | 69° |